Alburg, Vermont
Current Conditions -  °F | °C
As of 8:55 AM on Friday 28 Nov 2014 (Local Time) from KFSO Reporting Station
Overcast Overcast  
Wind Chill: 24°   Ceiling: 3800
Heat Index: 24°   Visibility: 10mi
Dew Point: 19°   Wind: 3mph
Humidity: 82%   Direction: 270°W
Pressure: 30.09"   Gusts: NA
Location:  44.9685°N, 73.281°W
Report Text: KFSO 281255Z AUTO 27003KT 10SM BKN038 BKN046 OVC100 M05/M07 A3009 RMK AO2 T10461072
Loading
Personal Weather Stations






























Interactive Weather Map New forecast layout! Learn more

10-Day Weather Forecast

Advertisements
Track Severe Weather on mobile